createdAt,value
2018-03-29T00:00:52.671Z,99.90
2018-03-29T00:01:55.125Z,99.90
2018-03-29T00:02:57.610Z,99.90
2018-03-29T00:04:00.074Z,99.90
2018-03-29T00:05:02.704Z,99.90
2018-03-29T00:06:05.165Z,99.90
2018-03-29T00:07:07.637Z,99.90
2018-03-29T00:08:10.155Z,99.90
2018-03-29T00:09:12.660Z,99.90
2018-03-29T00:10:15.122Z,99.90
2018-03-29T00:11:17.605Z,99.90
2018-03-29T00:12:20.077Z,99.90
2018-03-29T00:13:22.561Z,99.90
2018-03-29T00:14:25.056Z,99.90
2018-03-29T00:15:28.349Z,99.90
2018-03-29T00:16:31.581Z,99.90
2018-03-29T00:17:34.046Z,99.90
2018-03-29T00:18:36.549Z,99.90
2018-03-29T00:19:39.786Z,99.90
2018-03-29T00:20:42.250Z,99.90
2018-03-29T00:21:44.749Z,99.90
2018-03-29T00:22:47.215Z,99.90
2018-03-29T00:23:49.968Z,99.90
2018-03-29T00:24:52.427Z,99.90
2018-03-29T00:25:54.893Z,99.90
2018-03-29T00:26:57.361Z,99.90
2018-03-29T00:27:59.843Z,99.90
2018-03-29T00:29:02.622Z,99.90
2018-03-29T00:30:05.094Z,99.90
2018-03-29T00:31:08.329Z,99.90
2018-03-29T00:32:10.789Z,99.90
2018-03-29T00:33:13.262Z,99.90
2018-03-29T00:34:15.742Z,99.90
2018-03-29T00:35:18.221Z,99.90
2018-03-29T00:36:20.694Z,99.90
2018-03-29T00:37:23.972Z,99.90
2018-03-29T00:38:26.449Z,99.90
2018-03-29T00:39:29.702Z,99.90
2018-03-29T00:40:32.178Z,99.90
2018-03-29T00:41:34.646Z,99.90
2018-03-29T00:42:37.135Z,99.90
2018-03-29T00:43:40.365Z,99.90
2018-03-29T00:44:42.868Z,99.90
2018-03-29T00:45:46.135Z,99.90
2018-03-29T00:46:48.597Z,99.90
2018-03-29T00:47:51.105Z,99.90
2018-03-29T00:48:53.581Z,99.90
2018-03-29T00:49:56.065Z,99.90
2018-03-29T00:50:58.534Z,99.90
2018-03-29T00:52:01.005Z,99.90
2018-03-29T00:53:15.433Z,99.90
2018-03-29T00:54:17.898Z,99.90
2018-03-29T00:55:20.377Z,99.90
2018-03-29T00:56:22.841Z,99.90
2018-03-29T00:57:25.309Z,99.90
2018-03-29T00:58:27.777Z,99.90
2018-03-29T00:59:30.238Z,99.90
2018-03-29T01:00:32.718Z,99.90
2018-03-29T01:01:35.197Z,99.90
2018-03-29T01:02:38.428Z,99.90
2018-03-29T01:03:40.889Z,99.90
2018-03-29T01:04:43.357Z,99.90
2018-03-29T01:05:45.837Z,99.90
2018-03-29T01:06:48.305Z,99.90
2018-03-29T01:07:50.815Z,99.90
2018-03-29T01:08:54.041Z,99.90
2018-03-29T01:09:56.516Z,99.90
2018-03-29T01:10:59.301Z,99.90
2018-03-29T01:12:01.770Z,99.90
2018-03-29T01:13:04.239Z,99.90
2018-03-29T01:14:06.706Z,99.90
2018-03-29T01:15:09.174Z,99.90
2018-03-29T01:16:11.676Z,99.90
2018-03-29T01:17:14.143Z,99.90
2018-03-29T01:18:16.606Z,99.90
2018-03-29T01:19:19.074Z,99.90
2018-03-29T01:20:21.561Z,99.90
2018-03-29T01:21:24.046Z,99.90
2018-03-29T01:22:26.513Z,99.90
2018-03-29T01:23:28.994Z,99.90
2018-03-29T01:24:32.225Z,99.90
2018-03-29T01:25:34.697Z,99.90
2018-03-29T01:26:37.213Z,99.90
2018-03-29T01:27:40.445Z,99.90
2018-03-29T01:28:42.933Z,99.90
2018-03-29T01:29:45.400Z,99.90
2018-03-29T01:30:49.373Z,99.90
2018-03-29T01:31:52.181Z,99.90
2018-03-29T01:32:54.650Z,99.90
2018-03-29T01:33:57.111Z,99.90
2018-03-29T01:34:59.574Z,99.90
2018-03-29T01:36:02.045Z,99.90
2018-03-29T01:37:05.313Z,99.90
2018-03-29T01:38:07.772Z,99.90
2018-03-29T01:39:10.245Z,99.90
2018-03-29T01:40:13.501Z,99.90
2018-03-29T01:41:15.973Z,99.90
2018-03-29T01:42:18.458Z,99.90
2018-03-29T01:43:20.922Z,99.90
2018-03-29T01:44:23.394Z,99.90
2018-03-29T01:45:26.629Z,99.90
2018-03-29T01:46:29.097Z,99.90
2018-03-29T01:47:31.581Z,99.90
2018-03-29T01:48:34.069Z,99.90
2018-03-29T01:49:36.545Z,99.90
2018-03-29T01:50:39.789Z,99.90
2018-03-29T01:51:42.254Z,99.90
2018-03-29T01:52:44.761Z,99.90
2018-03-29T01:53:48.961Z,99.90
2018-03-29T01:54:52.189Z,99.90
2018-03-29T01:55:54.653Z,99.90
2018-03-29T01:56:57.149Z,99.90
2018-03-29T01:57:59.714Z,99.90
2018-03-29T01:59:02.177Z,99.90
2018-03-29T02:00:04.641Z,99.90
2018-03-29T02:01:07.118Z,99.90
2018-03-29T02:02:09.582Z,99.90
2018-03-29T02:03:12.350Z,99.90
2018-03-29T02:04:15.617Z,99.90
2018-03-29T02:05:18.090Z,99.90
2018-03-29T02:06:20.558Z,99.90
2018-03-29T02:07:23.025Z,99.90
2018-03-29T02:08:25.513Z,99.90
2018-03-29T02:09:27.987Z,99.90
2018-03-29T02:10:30.456Z,99.90
2018-03-29T02:11:32.941Z,99.90
2018-03-29T02:12:35.408Z,99.90
2018-03-29T02:13:37.910Z,99.90
2018-03-29T02:14:40.370Z,99.90
2018-03-29T02:15:42.837Z,99.90
2018-03-29T02:16:45.304Z,99.90
2018-03-29T02:17:47.774Z,99.90
2018-03-29T02:18:50.274Z,99.90
2018-03-29T02:19:52.760Z,99.90
2018-03-29T02:20:55.235Z,99.90
2018-03-29T02:21:57.698Z,99.90
2018-03-29T02:23:00.161Z,99.90
2018-03-29T02:24:02.705Z,99.90
2018-03-29T02:25:05.173Z,99.90
2018-03-29T02:26:07.703Z,99.90
2018-03-29T02:27:10.944Z,99.90
2018-03-29T02:28:13.413Z,99.90
2018-03-29T02:29:15.895Z,99.90
2018-03-29T02:30:18.377Z,99.90
2018-03-29T02:31:21.610Z,99.90
2018-03-29T02:32:24.083Z,99.90
2018-03-29T02:33:26.550Z,99.90
2018-03-29T02:34:29.034Z,99.90
2018-03-29T02:35:31.507Z,99.90
2018-03-29T02:36:33.978Z,99.90
2018-03-29T02:37:37.222Z,99.90
2018-03-29T02:38:39.697Z,99.90
2018-03-29T02:39:42.182Z,99.90
2018-03-29T02:40:44.650Z,99.90
2018-03-29T02:41:47.886Z,99.90
2018-03-29T02:42:50.362Z,99.90
2018-03-29T02:43:52.841Z,99.90
2018-03-29T02:44:55.330Z,99.90
2018-03-29T02:45:57.803Z,99.90
2018-03-29T02:47:01.047Z,99.90
2018-03-29T02:48:03.510Z,99.90
2018-03-29T02:49:05.982Z,99.90
2018-03-29T02:50:08.561Z,99.90
2018-03-29T02:51:11.045Z,99.90
2018-03-29T02:52:14.293Z,99.90
2018-03-29T02:53:16.765Z,99.90
2018-03-29T02:54:20.738Z,99.90
2018-03-29T02:55:23.213Z,99.90
2018-03-29T02:56:25.682Z,99.90
2018-03-29T02:57:28.166Z,99.90
2018-03-29T02:58:30.633Z,99.90
2018-03-29T02:59:33.865Z,99.90
2018-03-29T03:00:36.378Z,99.90
2018-03-29T03:01:38.862Z,99.90
2018-03-29T03:02:42.098Z,99.90
2018-03-29T03:03:44.568Z,99.90
2018-03-29T03:04:47.046Z,99.90
2018-03-29T03:05:49.533Z,99.90
2018-03-29T03:06:52.773Z,99.90
2018-03-29T03:07:55.238Z,99.90
2018-03-29T03:08:57.716Z,99.90
2018-03-29T03:10:00.190Z,99.90
2018-03-29T03:11:02.681Z,99.90
2018-03-29T03:12:05.917Z,99.90
2018-03-29T03:13:08.385Z,99.90
2018-03-29T03:14:10.851Z,99.90
2018-03-29T03:15:13.338Z,99.90
2018-03-29T03:16:15.850Z,99.90
2018-03-29T03:17:18.317Z,99.90
2018-03-29T03:18:20.787Z,99.90
2018-03-29T03:19:23.265Z,99.90
2018-03-29T03:20:25.738Z,99.90
2018-03-29T03:21:28.317Z,99.90
2018-03-29T03:22:30.781Z,99.90
2018-03-29T03:23:33.246Z,99.90
2018-03-29T03:24:35.713Z,99.90
2018-03-29T03:25:38.207Z,99.90
2018-03-29T03:26:41.573Z,99.90
2018-03-29T03:27:44.033Z,99.90
2018-03-29T03:28:46.498Z,99.90
2018-03-29T03:29:48.969Z,99.90
2018-03-29T03:30:52.202Z,99.90
2018-03-29T03:31:54.685Z,99.90
2018-03-29T03:32:57.154Z,99.90
2018-03-29T03:33:59.632Z,99.90
2018-03-29T03:35:02.094Z,99.90
2018-03-29T03:36:04.568Z,99.90
2018-03-29T03:37:07.093Z,99.90
2018-03-29T03:38:10.289Z,99.90
2018-03-29T03:39:12.753Z,99.90
2018-03-29T03:40:15.252Z,99.90
2018-03-29T03:41:17.716Z,99.90
2018-03-29T03:42:20.961Z,99.90
2018-03-29T03:43:23.429Z,99.90
2018-03-29T03:44:25.894Z,99.90
2018-03-29T03:45:28.508Z,99.90
2018-03-29T03:46:31.815Z,99.90
2018-03-29T03:47:34.307Z,99.90
2018-03-29T03:48:36.774Z,99.90
2018-03-29T03:49:39.232Z,99.90
2018-03-29T03:50:41.701Z,99.90
2018-03-29T03:51:44.161Z,99.90
2018-03-29T03:52:46.656Z,99.90
2018-03-29T03:53:49.117Z,99.90
2018-03-29T03:54:51.677Z,99.90
2018-03-29T03:55:54.145Z,99.90
2018-03-29T03:56:56.633Z,99.90
2018-03-29T03:57:59.901Z,99.90
2018-03-29T03:59:02.385Z,99.90
2018-03-29T04:00:05.617Z,99.90
2018-03-29T04:01:08.081Z,99.90
2018-03-29T04:02:10.582Z,99.90
2018-03-29T04:03:13.085Z,99.90
2018-03-29T04:04:15.557Z,99.90
2018-03-29T04:05:18.021Z,99.90
2018-03-29T04:06:20.486Z,99.90
2018-03-29T04:07:22.953Z,99.90
2018-03-29T04:08:25.765Z,99.90
2018-03-29T04:09:28.231Z,99.90
2018-03-29T04:10:30.697Z,99.90
2018-03-29T04:11:33.167Z,99.90
2018-03-29T04:12:35.628Z,99.90
2018-03-29T04:13:38.113Z,99.90
2018-03-29T04:14:41.350Z,99.90
2018-03-29T04:15:43.819Z,99.90
2018-03-29T04:16:46.289Z,99.90
2018-03-29T04:17:48.772Z,99.90
2018-03-29T04:18:51.263Z,99.90
2018-03-29T04:19:53.722Z,99.90
2018-03-29T04:20:56.198Z,99.90
2018-03-29T04:21:58.659Z,99.90
2018-03-29T04:23:01.129Z,99.90
2018-03-29T04:24:03.613Z,99.90
2018-03-29T04:25:06.086Z,99.90
2018-03-29T04:26:08.549Z,99.90
2018-03-29T04:27:11.025Z,99.90
2018-03-29T04:28:13.497Z,99.90
2018-03-29T04:29:15.977Z,99.90
2018-03-29T04:30:18.443Z,99.90
2018-03-29T04:31:20.933Z,99.90
2018-03-29T04:32:23.402Z,99.90
2018-03-29T04:33:25.874Z,99.90
2018-03-29T04:34:28.379Z,99.90
2018-03-29T04:35:30.841Z,99.90
2018-03-29T04:36:33.318Z,99.90
2018-03-29T04:37:35.889Z,99.90
2018-03-29T04:38:38.453Z,99.90
2018-03-29T04:39:41.185Z,99.90
2018-03-29T04:40:43.657Z,99.90
2018-03-29T04:41:46.117Z,99.90
2018-03-29T04:42:48.590Z,99.90
2018-03-29T04:43:51.054Z,99.90
2018-03-29T04:44:53.560Z,99.90
2018-03-29T04:45:56.025Z,99.90
2018-03-29T04:46:59.272Z,99.90
2018-03-29T04:48:01.737Z,99.90
2018-03-29T04:49:04.210Z,99.90
2018-03-29T04:50:06.997Z,99.90
2018-03-29T04:51:09.463Z,99.90
2018-03-29T04:52:11.933Z,99.90
2018-03-29T04:53:14.405Z,99.90
2018-03-29T04:54:17.670Z,99.90
2018-03-29T04:55:20.441Z,99.90
2018-03-29T04:56:22.910Z,99.90
2018-03-29T04:57:25.386Z,99.90
2018-03-29T04:58:28.618Z,99.90
2018-03-29T04:59:31.102Z,99.90
2018-03-29T05:00:33.606Z,99.90
2018-03-29T05:01:36.844Z,99.90
2018-03-29T05:02:39.305Z,99.90
2018-03-29T05:03:41.774Z,99.90
2018-03-29T05:04:44.253Z,99.90
2018-03-29T05:05:46.760Z,99.90
2018-03-29T05:06:49.221Z,99.90
2018-03-29T05:07:51.705Z,99.90
2018-03-29T05:08:54.170Z,99.90
2018-03-29T05:09:56.644Z,99.90
2018-03-29T05:10:59.133Z,99.90
2018-03-29T05:12:01.605Z,99.90
2018-03-29T05:13:04.076Z,99.90
2018-03-29T05:14:07.312Z,99.90
2018-03-29T05:15:09.781Z,99.90
2018-03-29T05:16:12.277Z,99.90
2018-03-29T05:17:14.744Z,99.90
2018-03-29T05:18:17.222Z,99.90
2018-03-29T05:19:19.711Z,99.90
2018-03-29T05:20:22.943Z,99.90
2018-03-29T05:21:25.441Z,99.90
2018-03-29T05:22:27.918Z,99.90
2018-03-29T05:23:31.178Z,99.90
2018-03-29T05:24:33.646Z,99.90
2018-03-29T05:25:36.149Z,99.90
2018-03-29T05:26:38.638Z,99.90
2018-03-29T05:27:46.798Z,99.90
2018-03-29T05:28:50.075Z,99.90
2018-03-29T05:29:52.542Z,99.90
2018-03-29T05:30:55.793Z,99.90
2018-03-29T05:31:58.570Z,99.90
2018-03-29T05:33:01.048Z,99.90
2018-03-29T05:34:04.291Z,99.90
2018-03-29T05:35:06.762Z,99.90
2018-03-29T05:36:09.233Z,99.90
2018-03-29T05:37:11.713Z,99.90
2018-03-29T05:38:14.192Z,99.90
2018-03-29T05:39:17.434Z,99.90
2018-03-29T05:40:19.909Z,99.90
2018-03-29T05:41:22.406Z,99.90
2018-03-29T05:42:25.673Z,99.90
2018-03-29T05:43:28.153Z,99.90
2018-03-29T05:44:31.397Z,99.90
2018-03-29T05:45:33.877Z,99.90
2018-03-29T05:46:36.369Z,99.90
2018-03-29T05:47:39.618Z,99.90
2018-03-29T05:48:42.088Z,99.90
2018-03-29T05:49:44.554Z,99.90
2018-03-29T05:50:47.842Z,99.90
2018-03-29T05:51:50.337Z,99.90
2018-03-29T05:52:52.829Z,99.90
2018-03-29T05:53:55.300Z,99.90
2018-03-29T05:54:57.765Z,99.90
2018-03-29T05:56:00.247Z,99.90
2018-03-29T05:57:02.714Z,99.90
2018-03-29T05:58:05.513Z,99.90
2018-03-29T05:59:08.750Z,99.90
2018-03-29T06:00:11.252Z,99.90
2018-03-29T06:01:13.732Z,99.90
2018-03-29T06:02:16.966Z,99.90
2018-03-29T06:03:19.464Z,99.90
2018-03-29T06:04:21.992Z,99.90
2018-03-29T06:05:24.459Z,99.90
2018-03-29T06:06:26.938Z,99.90
2018-03-29T06:07:29.413Z,99.90
2018-03-29T06:08:31.906Z,99.90
2018-03-29T06:09:35.137Z,99.90
2018-03-29T06:10:37.610Z,99.90
2018-03-29T06:11:40.090Z,99.90
2018-03-29T06:12:42.556Z,99.90
2018-03-29T06:13:45.063Z,99.90
2018-03-29T06:14:47.555Z,99.90
2018-03-29T06:15:55.681Z,99.90
2018-03-29T06:16:58.174Z,99.90
2018-03-29T06:18:01.406Z,99.90
2018-03-29T06:19:08.857Z,99.80
2018-03-29T06:20:11.320Z,99.80
2018-03-29T06:21:13.796Z,99.80
2018-03-29T06:22:16.267Z,99.90
2018-03-29T06:23:18.772Z,99.50
2018-03-29T06:24:21.246Z,99.30
2018-03-29T06:25:23.734Z,99.20
2018-03-29T06:26:26.254Z,98.90
2018-03-29T06:27:28.778Z,98.70
2018-03-29T06:28:31.250Z,98.80
2018-03-29T06:29:33.737Z,98.80
2018-03-29T06:30:36.212Z,98.60
2018-03-29T06:31:38.680Z,98.60
2018-03-29T06:32:41.166Z,97.80
2018-03-29T06:33:44.426Z,97.90
2018-03-29T06:34:46.916Z,97.90
2018-03-29T06:35:50.409Z,98.30
2018-03-29T06:36:53.656Z,98.00
2018-03-29T06:37:56.123Z,98.00
2018-03-29T06:38:58.595Z,97.30
2018-03-29T06:40:01.092Z,97.00
2018-03-29T06:41:04.357Z,97.00
2018-03-29T06:42:06.826Z,97.00
2018-03-29T06:43:10.067Z,96.40
2018-03-29T06:44:12.539Z,96.40
2018-03-29T06:45:15.055Z,96.50
2018-03-29T06:46:18.322Z,96.90
2018-03-29T06:47:20.804Z,96.90
2018-03-29T06:48:24.045Z,97.00
2018-03-29T06:49:26.521Z,97.00
2018-03-29T06:50:29.006Z,97.20
2018-03-29T06:51:32.233Z,97.10
2018-03-29T06:52:34.705Z,97.00
2018-03-29T06:53:37.173Z,97.20
2018-03-29T06:54:39.645Z,96.90
2018-03-29T06:55:42.174Z,96.80
2018-03-29T06:56:44.642Z,97.00
2018-03-29T06:57:47.171Z,96.90
2018-03-29T06:58:50.457Z,96.70
2018-03-29T06:59:53.692Z,96.80
2018-03-29T07:00:56.203Z,96.80
2018-03-29T07:01:58.682Z,96.90
2018-03-29T07:03:01.978Z,97.20
2018-03-29T07:04:05.284Z,97.20
2018-03-29T07:05:07.754Z,97.20
2018-03-29T07:06:10.275Z,97.10
2018-03-29T07:07:12.750Z,96.90
2018-03-29T07:08:15.229Z,97.00
2018-03-29T07:09:17.701Z,97.00
2018-03-29T07:10:20.210Z,97.00
2018-03-29T07:11:22.696Z,96.60
2018-03-29T07:12:25.929Z,95.10
2018-03-29T07:13:28.406Z,95.10
2018-03-29T07:14:30.869Z,95.20
2018-03-29T07:15:33.336Z,95.30
2018-03-29T07:16:35.849Z,95.60
2018-03-29T07:17:38.363Z,95.90
2018-03-29T07:18:40.827Z,95.70
2018-03-29T07:19:43.297Z,95.60
2018-03-29T07:20:45.761Z,95.70
2018-03-29T07:21:48.313Z,95.80
2018-03-29T07:22:50.754Z,95.80
2018-03-29T07:23:53.238Z,95.40
2018-03-29T07:24:55.711Z,95.20
2018-03-29T07:25:58.177Z,95.10
2018-03-29T07:27:00.662Z,95.10
2018-03-29T07:28:03.128Z,95.10
2018-03-29T07:29:05.607Z,95.10
2018-03-29T07:30:08.849Z,95.20
2018-03-29T07:31:11.427Z,95.20
2018-03-29T07:32:13.917Z,95.30
2018-03-29T07:33:17.165Z,94.60
2018-03-29T07:34:19.653Z,94.60
2018-03-29T07:35:22.133Z,94.60
2018-03-29T07:36:25.383Z,94.60
2018-03-29T07:37:28.462Z,94.60
2018-03-29T07:38:30.929Z,93.70
2018-03-29T07:39:33.421Z,93.70
2018-03-29T07:40:36.686Z,94.00
2018-03-29T07:41:39.725Z,94.00
2018-03-29T07:42:42.218Z,94.40
2018-03-29T07:43:44.681Z,94.10
2018-03-29T07:44:47.147Z,93.90
2018-03-29T07:45:49.629Z,93.70
2018-03-29T07:46:52.105Z,93.70
2018-03-29T07:47:55.364Z,93.70
2018-03-29T07:48:57.853Z,93.70
2018-03-29T07:50:01.117Z,93.50
2018-03-29T07:51:03.590Z,93.50
2018-03-29T07:52:06.067Z,93.60
2018-03-29T07:53:09.684Z,94.10
2018-03-29T07:54:12.171Z,94.30
2018-03-29T07:55:14.654Z,94.10
2018-03-29T07:56:17.135Z,93.50
2018-03-29T07:57:19.613Z,93.80
2018-03-29T07:58:22.861Z,94.20
2018-03-29T07:59:25.342Z,94.20
2018-03-29T08:00:27.848Z,94.30
2018-03-29T08:01:31.063Z,94.70
2018-03-29T08:02:33.555Z,94.70
2018-03-29T08:03:37.886Z,94.70
2018-03-29T08:04:41.122Z,94.50
2018-03-29T08:05:43.604Z,94.50
2018-03-29T08:06:47.833Z,94.40
2018-03-29T08:07:52.034Z,94.40
2018-03-29T08:08:55.305Z,94.30
2018-03-29T08:09:57.780Z,94.30
2018-03-29T08:11:01.014Z,94.20
2018-03-29T08:12:04.019Z,94.10
2018-03-29T08:13:06.482Z,94.10
2018-03-29T08:14:08.969Z,93.90
2018-03-29T08:15:12.194Z,93.70
2018-03-29T08:16:14.658Z,93.60
2018-03-29T08:17:17.126Z,93.40
2018-03-29T08:18:19.597Z,93.20
2018-03-29T08:19:22.086Z,92.50
2018-03-29T08:20:24.562Z,92.40
2018-03-29T08:21:27.057Z,91.80
2018-03-29T08:22:32.098Z,92.20
2018-03-29T08:23:34.565Z,92.10
2018-03-29T08:24:37.053Z,92.30
2018-03-29T08:25:39.522Z,92.40
2018-03-29T08:26:41.983Z,92.40
2018-03-29T08:27:44.457Z,92.60
2018-03-29T08:28:46.984Z,92.80
2018-03-29T08:29:49.883Z,93.00
2018-03-29T08:30:52.357Z,93.20
2018-03-29T08:31:54.842Z,93.00
2018-03-29T08:32:57.323Z,93.00
2018-03-29T08:34:00.570Z,92.80
2018-03-29T08:35:03.079Z,93.00
2018-03-29T08:36:06.325Z,92.60
2018-03-29T08:37:08.814Z,92.60
2018-03-29T08:38:12.050Z,92.70
2018-03-29T08:39:14.539Z,92.40
2018-03-29T08:40:17.040Z,92.80
2018-03-29T08:41:20.269Z,93.10
2018-03-29T08:42:22.741Z,93.10
2018-03-29T08:43:25.220Z,92.70
2018-03-29T08:44:27.685Z,92.70
2018-03-29T08:45:30.173Z,92.60
2018-03-29T08:46:33.420Z,92.70
2018-03-29T08:47:35.893Z,92.70
2018-03-29T08:48:38.361Z,92.80
2018-03-29T08:49:40.888Z,92.90
2018-03-29T08:50:43.707Z,93.10
2018-03-29T08:51:46.178Z,93.20
2018-03-29T08:52:48.658Z,93.00
2018-03-29T08:53:51.891Z,93.00
2018-03-29T08:54:54.362Z,92.90
2018-03-29T08:55:56.860Z,93.20
2018-03-29T08:57:00.087Z,92.50
2018-03-29T08:58:02.548Z,92.50
2018-03-29T08:59:05.021Z,92.00
2018-03-29T09:00:07.488Z,91.90
2018-03-29T09:01:10.299Z,92.10
2018-03-29T09:02:12.770Z,92.30
2018-03-29T09:03:16.003Z,92.80
2018-03-29T09:04:18.522Z,92.80
2018-03-29T09:05:21.806Z,92.50
2018-03-29T09:06:25.065Z,92.50
2018-03-29T09:07:27.583Z,92.50
2018-03-29T09:08:30.047Z,92.70
2018-03-29T09:09:32.510Z,92.70
2018-03-29T09:10:34.999Z,92.70
2018-03-29T09:11:37.806Z,93.00
2018-03-29T09:12:41.229Z,93.60
2018-03-29T09:13:43.708Z,93.60
2018-03-29T09:14:46.181Z,93.30
2018-03-29T09:15:48.658Z,93.00
2018-03-29T09:16:51.161Z,92.40
2018-03-29T09:17:54.394Z,91.50
2018-03-29T09:18:56.913Z,91.50
2018-03-29T09:20:00.166Z,91.60
2018-03-29T09:21:02.693Z,91.70
2018-03-29T09:22:05.913Z,91.90
2018-03-29T09:23:08.394Z,91.90
2018-03-29T09:24:10.868Z,91.70
2018-03-29T09:25:14.090Z,91.80
2018-03-29T09:26:16.562Z,91.80
2018-03-29T09:27:19.064Z,92.00
2018-03-29T09:28:21.545Z,92.20
2018-03-29T09:29:24.780Z,92.20
2018-03-29T09:30:27.237Z,92.20
2018-03-29T09:31:29.698Z,92.10
2018-03-29T09:32:32.185Z,91.50
2018-03-29T09:33:34.662Z,91.20
2018-03-29T09:34:37.136Z,91.50
2018-03-29T09:35:39.696Z,92.00
2018-03-29T09:36:42.161Z,92.50
2018-03-29T09:37:44.677Z,92.30
2018-03-29T09:38:47.145Z,92.50
2018-03-29T09:39:49.616Z,92.60
2018-03-29T09:40:52.081Z,92.50
2018-03-29T09:41:54.556Z,92.00
2018-03-29T09:42:57.396Z,91.50
2018-03-29T09:43:59.883Z,91.70
2018-03-29T09:45:02.354Z,90.40
2018-03-29T09:46:04.833Z,89.70
2018-03-29T09:47:07.306Z,90.10
2018-03-29T09:48:09.794Z,89.20
2018-03-29T09:49:13.026Z,88.50
2018-03-29T09:50:15.494Z,88.10
2018-03-29T09:51:17.965Z,85.30
2018-03-29T09:52:20.442Z,84.10
2018-03-29T09:53:22.923Z,81.30
2018-03-29T09:54:25.386Z,78.20
2018-03-29T09:55:28.293Z,77.10
2018-03-29T09:56:30.757Z,75.20
2018-03-29T09:57:33.225Z,74.60
2018-03-29T09:58:35.710Z,73.10
2018-03-29T09:59:38.189Z,72.70
2018-03-29T10:00:40.681Z,72.80
2018-03-29T10:01:44.077Z,73.90
2018-03-29T10:02:53.025Z,75.80
2018-03-29T10:04:02.890Z,75.80
2018-03-29T10:05:05.374Z,76.80
2018-03-29T10:06:13.461Z,77.40
2018-03-29T10:07:21.751Z,77.50
2018-03-29T10:08:24.221Z,76.90
2018-03-29T10:09:26.716Z,76.60
2018-03-29T10:10:30.029Z,76.70
2018-03-29T10:11:32.501Z,76.90
2018-03-29T10:12:34.991Z,76.20
2018-03-29T10:13:37.487Z,75.70
2018-03-29T10:14:39.965Z,75.50
2018-03-29T10:15:42.512Z,75.80
2018-03-29T10:16:44.951Z,76.40
2018-03-29T10:17:47.420Z,77.20
2018-03-29T10:18:49.923Z,77.10
2018-03-29T10:19:53.215Z,75.00
2018-03-29T10:20:56.451Z,74.90
2018-03-29T10:21:58.933Z,74.80
2018-03-29T10:23:01.400Z,73.10
2018-03-29T10:24:03.935Z,72.60
2018-03-29T10:25:06.375Z,71.50
2018-03-29T10:26:08.855Z,70.50
2018-03-29T10:27:11.330Z,69.70
2018-03-29T10:28:13.814Z,69.50
2018-03-29T10:29:16.297Z,70.10
2018-03-29T10:30:18.805Z,70.30
2018-03-29T10:31:21.270Z,69.20
2018-03-29T10:32:23.742Z,69.10
2018-03-29T10:33:26.222Z,69.60
2018-03-29T10:34:28.743Z,70.10
2018-03-29T10:35:31.238Z,68.80
2018-03-29T10:36:33.713Z,67.10
2018-03-29T10:37:36.181Z,65.40
2018-03-29T10:38:38.653Z,63.20
2018-03-29T10:39:41.142Z,63.00
2018-03-29T10:40:43.605Z,64.00
2018-03-29T10:41:46.070Z,63.20
2018-03-29T10:42:48.574Z,63.60
2018-03-29T10:43:51.079Z,64.20
2018-03-29T10:44:53.586Z,64.90
2018-03-29T10:45:56.823Z,62.70
2018-03-29T10:46:59.294Z,62.60
2018-03-29T10:48:01.773Z,61.90
2018-03-29T10:49:04.258Z,61.60
2018-03-29T10:50:07.529Z,62.50
2018-03-29T10:51:10.018Z,61.90
2018-03-29T10:52:13.265Z,63.80
2018-03-29T10:53:15.729Z,63.80
2018-03-29T10:54:18.248Z,62.30
2018-03-29T10:55:20.725Z,60.80
2018-03-29T10:56:23.198Z,61.40
2018-03-29T10:57:25.665Z,62.30
2018-03-29T10:58:29.031Z,62.70
2018-03-29T10:59:31.497Z,61.80
2018-03-29T11:00:33.996Z,61.60
2018-03-29T11:01:36.484Z,62.40
2018-03-29T11:02:38.948Z,63.00
2018-03-29T11:03:41.457Z,63.80
2018-03-29T11:04:43.972Z,62.80
2018-03-29T11:05:46.540Z,62.50
2018-03-29T11:06:49.005Z,63.30
2018-03-29T11:07:51.582Z,63.20
2018-03-29T11:08:54.054Z,63.00
2018-03-29T11:09:57.641Z,64.00
2018-03-29T11:11:00.874Z,63.70
2018-03-29T11:12:03.967Z,63.30
2018-03-29T11:13:06.427Z,60.30
2018-03-29T11:14:08.893Z,59.70
2018-03-29T11:15:11.419Z,59.70
2018-03-29T11:16:13.923Z,59.90
2018-03-29T11:17:16.406Z,60.40
2018-03-29T11:18:18.873Z,61.70
2018-03-29T11:19:22.142Z,63.20
2018-03-29T11:20:24.625Z,62.70
2018-03-29T11:21:27.108Z,62.70
2018-03-29T11:22:30.351Z,62.40
2018-03-29T11:23:32.829Z,62.40
2018-03-29T11:24:35.334Z,62.10
2018-03-29T11:25:37.818Z,62.30
2018-03-29T11:26:40.298Z,62.20
2018-03-29T11:27:42.760Z,61.30
2018-03-29T11:28:45.225Z,60.90
2018-03-29T11:29:47.700Z,59.30
2018-03-29T11:30:50.185Z,59.10
2018-03-29T11:31:52.649Z,58.80
2018-03-29T11:32:55.121Z,59.20
2018-03-29T11:33:57.590Z,57.50
2018-03-29T11:35:00.826Z,57.50
2018-03-29T11:36:03.339Z,57.30
2018-03-29T11:37:05.798Z,58.30
2018-03-29T11:38:08.267Z,58.80
2018-03-29T11:39:10.731Z,58.30
2018-03-29T11:40:13.965Z,59.20
2018-03-29T11:41:16.481Z,59.20
2018-03-29T11:42:19.767Z,60.60
2018-03-29T11:43:22.189Z,60.50
2018-03-29T11:44:24.657Z,59.40
2018-03-29T11:45:27.380Z,58.60
2018-03-29T11:46:29.879Z,59.00
2018-03-29T11:47:32.364Z,59.20
2018-03-29T11:48:34.838Z,59.60
2018-03-29T11:49:37.742Z,59.40
2018-03-29T11:50:40.984Z,59.60
2018-03-29T11:51:43.468Z,59.60
2018-03-29T11:52:45.934Z,58.50
2018-03-29T11:53:48.407Z,58.90
2018-03-29T11:54:51.630Z,59.60
2018-03-29T11:55:54.101Z,59.60
2018-03-29T11:56:56.629Z,59.10
2018-03-29T11:57:59.860Z,58.50
2018-03-29T11:59:02.331Z,58.50
2018-03-29T12:00:04.803Z,57.30
2018-03-29T12:01:07.278Z,56.40
2018-03-29T12:02:09.762Z,56.50
2018-03-29T12:03:13.009Z,57.70
2018-03-29T12:04:15.475Z,57.60
2018-03-29T12:05:17.937Z,56.60
2018-03-29T12:06:20.441Z,54.40
2018-03-29T12:07:23.712Z,53.30
2018-03-29T12:08:26.177Z,53.20
2018-03-29T12:09:29.421Z,52.40
2018-03-29T12:10:31.890Z,51.90
2018-03-29T12:11:34.361Z,49.30
2018-03-29T12:12:36.842Z,47.60
2018-03-29T12:13:39.414Z,45.80
2018-03-29T12:14:41.899Z,44.50
2018-03-29T12:15:45.140Z,43.70
2018-03-29T12:16:47.601Z,43.70
2018-03-29T12:17:50.100Z,43.10
2018-03-29T12:18:53.325Z,42.60
2018-03-29T12:19:55.797Z,42.60
2018-03-29T12:20:58.297Z,42.50
2018-03-29T12:22:01.594Z,45.50
2018-03-29T12:23:04.119Z,45.50
2018-03-29T12:24:06.603Z,47.70
2018-03-29T12:25:10.066Z,50.00
2018-03-29T12:26:12.565Z,51.20
2018-03-29T12:27:15.042Z,53.90
2018-03-29T12:28:18.301Z,56.70
2018-03-29T12:29:20.798Z,56.70
2018-03-29T12:30:24.050Z,58.10
2018-03-29T12:31:26.678Z,58.00
2018-03-29T12:32:29.149Z,57.60
2018-03-29T12:33:31.639Z,58.60
2018-03-29T12:34:34.098Z,59.20
2018-03-29T12:35:36.569Z,60.70
2018-03-29T12:36:39.033Z,60.20
2018-03-29T12:37:41.503Z,60.70
2018-03-29T12:38:43.989Z,60.00
2018-03-29T12:39:47.263Z,58.40
2018-03-29T12:40:49.755Z,58.40
2018-03-29T12:41:52.285Z,58.60
2018-03-29T12:42:54.755Z,59.30
2018-03-29T12:43:57.243Z,60.30
2018-03-29T12:45:00.501Z,62.90
2018-03-29T12:46:02.983Z,62.90
2018-03-29T12:47:06.214Z,61.70
2018-03-29T12:48:08.707Z,61.70
2018-03-29T12:49:11.177Z,62.40
2018-03-29T12:50:13.648Z,62.80
2018-03-29T12:51:16.897Z,63.80
2018-03-29T12:52:19.363Z,63.90
2018-03-29T12:53:21.829Z,65.70
2018-03-29T12:54:24.346Z,64.80
2018-03-29T12:55:39.589Z,64.20
2018-03-29T12:56:54.757Z,63.90
2018-03-29T12:58:10.993Z,63.00
2018-03-29T12:59:13.470Z,63.00
2018-03-29T13:00:15.980Z,63.30
2018-03-29T13:01:18.529Z,61.50
2018-03-29T13:02:20.993Z,61.30
2018-03-29T13:03:23.460Z,61.20
2018-03-29T13:04:25.947Z,62.00
2018-03-29T13:05:29.176Z,61.80
2018-03-29T13:06:31.648Z,61.80
2018-03-29T13:07:34.105Z,62.80
2018-03-29T13:08:36.569Z,63.10
2018-03-29T13:09:39.091Z,61.50
2018-03-29T13:10:42.339Z,62.60
2018-03-29T13:11:44.825Z,62.50
2018-03-29T13:12:48.057Z,64.00
2018-03-29T13:13:50.533Z,64.00
2018-03-29T13:14:53.321Z,64.60
2018-03-29T13:15:55.816Z,64.20
2018-03-29T13:16:59.074Z,60.90
2018-03-29T13:18:01.542Z,60.80
2018-03-29T13:19:04.002Z,59.60
2018-03-29T13:20:07.249Z,60.30
2018-03-29T13:21:09.718Z,60.40
2018-03-29T13:22:12.212Z,59.20
2018-03-29T13:23:14.684Z,59.00
2018-03-29T13:24:17.169Z,58.90
2018-03-29T13:25:21.837Z,59.00
2018-03-29T13:26:24.319Z,58.40
2018-03-29T13:27:26.813Z,58.10
2018-03-29T13:28:29.320Z,57.90